createdAt,value
2022-08-31T00:02:01.960Z,24.27
2022-08-31T00:04:32.035Z,24.24
2022-08-31T00:07:00.262Z,24.21
2022-08-31T00:09:31.099Z,24.25
2022-08-31T00:11:59.379Z,24.23
2022-08-31T00:14:28.657Z,24.18
2022-08-31T00:16:56.971Z,24.14
2022-08-31T00:19:25.438Z,24.10
2022-08-31T00:21:53.697Z,24.02
2022-08-31T00:24:21.922Z,23.86
2022-08-31T00:26:51.372Z,23.72
2022-08-31T00:29:19.847Z,23.58
2022-08-31T00:31:48.230Z,23.47
2022-08-31T00:34:16.621Z,23.28
2022-08-31T00:36:47.322Z,23.26
2022-08-31T00:39:15.936Z,23.27
2022-08-31T00:41:44.547Z,23.12
2022-08-31T00:44:15.096Z,22.96
2022-08-31T00:46:45.222Z,22.86
2022-08-31T00:49:17.599Z,22.68
2022-08-31T00:51:50.012Z,22.61
2022-08-31T00:54:21.473Z,22.56
2022-08-31T00:56:49.968Z,22.04
2022-08-31T00:59:21.798Z,22.04
2022-08-31T01:01:50.585Z,22.02
2022-08-31T01:04:19.483Z,22.00
2022-08-31T01:06:49.246Z,22.04
2022-08-31T01:09:17.945Z,21.98
2022-08-31T01:11:46.729Z,21.96
2022-08-31T01:14:15.777Z,21.86
2022-08-31T01:16:50.788Z,21.84
2022-08-31T01:19:33.639Z,21.75
2022-08-31T01:22:14.866Z,21.48
2022-08-31T01:24:48.670Z,21.25
2022-08-31T01:27:24.357Z,21.38
2022-08-31T01:29:54.595Z,21.43
2022-08-31T01:32:22.755Z,21.44
2022-08-31T01:34:51.032Z,21.47
2022-08-31T01:37:19.621Z,21.49
2022-08-31T01:39:58.956Z,21.56
2022-08-31T01:42:30.913Z,21.54
2022-08-31T01:45:02.574Z,21.50
2022-08-31T01:47:30.718Z,21.47
2022-08-31T01:49:58.878Z,21.50
2022-08-31T01:52:28.022Z,21.44
2022-08-31T01:54:58.514Z,21.40
2022-08-31T01:57:34.233Z,21.41
2022-08-31T02:00:34.919Z,21.38
2022-08-31T02:03:07.868Z,21.36
2022-08-31T02:05:38.182Z,21.38
2022-08-31T02:08:09.625Z,21.39
2022-08-31T02:10:40.029Z,21.28
2022-08-31T02:13:08.541Z,21.26
2022-08-31T02:15:39.584Z,21.21
2022-08-31T02:18:09.565Z,21.25
2022-08-31T02:20:40.529Z,21.19
2022-08-31T02:23:08.779Z,21.22
2022-08-31T02:25:38.348Z,21.24
2022-08-31T02:28:06.436Z,21.19
2022-08-31T02:30:34.737Z,21.29
2022-08-31T02:33:03.237Z,21.21
2022-08-31T02:35:31.915Z,21.23
2022-08-31T02:38:01.409Z,21.22
2022-08-31T02:40:30.649Z,21.21
2022-08-31T02:43:00.222Z,21.20
2022-08-31T02:45:28.671Z,21.13
2022-08-31T02:48:04.110Z,21.14
2022-08-31T02:50:42.049Z,21.18
2022-08-31T02:53:10.784Z,21.21
2022-08-31T02:55:39.946Z,21.21
2022-08-31T02:58:09.768Z,21.13
2022-08-31T03:00:39.763Z,21.13
2022-08-31T03:03:08.163Z,21.17
2022-08-31T03:05:36.523Z,21.20
2022-08-31T03:08:05.326Z,21.17
2022-08-31T03:10:33.644Z,21.10
2022-08-31T03:13:02.347Z,21.11
2022-08-31T03:15:32.125Z,21.10
2022-08-31T03:18:06.721Z,21.07
2022-08-31T03:20:36.033Z,21.08
2022-08-31T03:23:04.814Z,21.07
2022-08-31T03:25:34.036Z,21.07
2022-08-31T03:28:03.103Z,21.04
2022-08-31T03:30:35.980Z,21.12
2022-08-31T03:33:09.505Z,21.14
2022-08-31T03:35:43.594Z,21.16
2022-08-31T03:38:12.846Z,21.02
2022-08-31T03:40:41.774Z,20.99
2022-08-31T03:43:11.380Z,20.98
2022-08-31T03:45:43.885Z,20.96
2022-08-31T03:48:13.430Z,20.88
2022-08-31T03:50:45.136Z,20.91
2022-08-31T03:53:25.738Z,20.91
2022-08-31T03:56:01.665Z,20.89
2022-08-31T03:58:33.213Z,20.92
2022-08-31T04:01:04.088Z,20.99
2022-08-31T04:03:52.235Z,20.89
2022-08-31T04:06:40.253Z,20.90
2022-08-31T04:09:26.798Z,20.90
2022-08-31T04:12:23.897Z,21.01
2022-08-31T04:14:55.444Z,20.97
2022-08-31T04:17:48.705Z,20.95
2022-08-31T04:20:41.419Z,20.94
2022-08-31T04:23:11.188Z,20.94
2022-08-31T04:25:47.225Z,20.93
2022-08-31T04:28:15.421Z,20.87
2022-08-31T04:30:45.048Z,20.82
2022-08-31T04:33:18.868Z,20.85
2022-08-31T04:35:49.958Z,20.84
2022-08-31T04:38:18.350Z,20.85
2022-08-31T04:40:47.410Z,20.85
2022-08-31T04:43:15.734Z,20.79
2022-08-31T04:45:46.184Z,20.76
2022-08-31T04:48:15.098Z,20.78
2022-08-31T04:50:45.559Z,20.77
2022-08-31T04:53:13.924Z,20.71
2022-08-31T04:55:43.260Z,20.79
2022-08-31T04:58:13.845Z,20.76
2022-08-31T05:00:44.409Z,20.80
2022-08-31T05:03:37.799Z,20.74
2022-08-31T05:06:12.939Z,20.71
2022-08-31T05:08:41.075Z,20.73
2022-08-31T05:11:12.338Z,20.63
2022-08-31T05:13:40.928Z,20.65
2022-08-31T05:16:12.351Z,20.72
2022-08-31T05:18:43.028Z,20.68
2022-08-31T05:21:15.234Z,20.63
2022-08-31T05:23:46.709Z,20.54
2022-08-31T05:26:23.514Z,20.59
2022-08-31T05:28:56.076Z,20.61
2022-08-31T05:31:28.229Z,20.73
2022-08-31T05:33:57.867Z,20.62
2022-08-31T05:36:37.497Z,20.72
2022-08-31T05:39:11.699Z,20.75
2022-08-31T05:41:41.043Z,20.78
2022-08-31T05:44:09.752Z,20.73
2022-08-31T05:46:41.403Z,20.87
2022-08-31T05:49:10.917Z,20.78
2022-08-31T05:51:41.094Z,20.75
2022-08-31T05:54:10.748Z,20.74
2022-08-31T05:56:41.564Z,20.72
2022-08-31T05:59:11.500Z,20.79
2022-08-31T06:01:41.566Z,20.80
2022-08-31T06:04:27.053Z,20.73
2022-08-31T06:06:57.227Z,20.75
2022-08-31T06:09:29.414Z,20.71
2022-08-31T06:11:57.726Z,20.54
2022-08-31T06:14:25.858Z,20.52
2022-08-31T06:16:56.707Z,20.57
2022-08-31T06:19:25.841Z,20.61
2022-08-31T06:21:57.374Z,20.58
2022-08-31T06:24:28.633Z,20.60
2022-08-31T06:26:59.381Z,20.69
2022-08-31T06:29:35.606Z,20.67
2022-08-31T06:32:07.999Z,20.69
2022-08-31T06:34:40.525Z,20.76
2022-08-31T06:37:18.783Z,20.77
2022-08-31T06:39:54.549Z,20.79
2022-08-31T06:42:32.883Z,20.74
2022-08-31T06:45:03.595Z,20.84
2022-08-31T06:47:56.264Z,20.78
2022-08-31T06:50:24.415Z,20.80
2022-08-31T06:52:55.568Z,20.86
2022-08-31T06:55:25.834Z,20.83
2022-08-31T06:58:12.462Z,20.78
2022-08-31T07:01:08.694Z,20.79
2022-08-31T07:03:57.533Z,20.76
2022-08-31T07:06:28.709Z,20.79
2022-08-31T07:09:03.808Z,20.87
2022-08-31T07:11:41.015Z,20.82
2022-08-31T07:14:15.621Z,20.77
2022-08-31T07:16:46.086Z,20.82
2022-08-31T07:19:16.228Z,20.84
2022-08-31T07:21:47.854Z,20.84
2022-08-31T07:24:24.123Z,20.78
2022-08-31T07:26:57.831Z,20.78
2022-08-31T07:29:40.184Z,20.80
2022-08-31T07:32:13.469Z,20.85
2022-08-31T07:34:43.979Z,20.87
2022-08-31T07:37:59.006Z,20.88
2022-08-31T07:40:50.219Z,20.84
2022-08-31T07:43:19.188Z,20.84
2022-08-31T07:45:47.572Z,20.89
2022-08-31T07:48:21.470Z,20.92
2022-08-31T07:51:05.673Z,20.88
2022-08-31T07:53:47.378Z,21.02
2022-08-31T07:56:34.699Z,20.93
2022-08-31T07:59:15.192Z,20.99
2022-08-31T08:01:45.158Z,20.99
2022-08-31T08:04:25.316Z,20.99
2022-08-31T08:07:33.729Z,20.97
2022-08-31T08:10:24.218Z,21.00
2022-08-31T08:13:07.809Z,21.03
2022-08-31T08:15:48.551Z,20.97
2022-08-31T08:18:27.118Z,20.96
2022-08-31T08:20:59.403Z,21.05
2022-08-31T08:23:29.121Z,21.07
2022-08-31T08:26:21.429Z,21.10
2022-08-31T08:29:22.107Z,21.08
2022-08-31T08:31:53.002Z,21.07
2022-08-31T08:34:29.587Z,20.98
2022-08-31T08:37:01.660Z,21.01
2022-08-31T08:39:30.301Z,21.01
2022-08-31T08:42:15.682Z,21.05
2022-08-31T08:44:45.735Z,20.99
2022-08-31T08:47:38.499Z,20.94
2022-08-31T08:50:09.018Z,20.93
2022-08-31T08:52:43.282Z,20.80
2022-08-31T08:55:16.775Z,20.83
2022-08-31T08:57:52.282Z,20.72
2022-08-31T09:00:25.392Z,20.80
2022-08-31T09:03:02.150Z,20.75
2022-08-31T09:06:02.839Z,20.77
2022-08-31T09:09:09.452Z,20.66
2022-08-31T09:11:55.402Z,20.73
2022-08-31T09:14:39.244Z,20.76
2022-08-31T09:17:17.995Z,20.81
2022-08-31T09:20:01.675Z,20.81
2022-08-31T09:22:35.035Z,20.93
2022-08-31T09:25:04.527Z,20.91
2022-08-31T09:27:58.137Z,20.98
2022-08-31T09:30:52.159Z,20.99
2022-08-31T09:33:24.947Z,21.03
2022-08-31T09:35:56.820Z,21.03
2022-08-31T09:38:31.412Z,21.01
2022-08-31T09:41:02.078Z,20.94
2022-08-31T09:43:38.571Z,21.00
2022-08-31T09:46:12.627Z,20.90
2022-08-31T09:48:51.328Z,20.98
2022-08-31T09:51:28.175Z,21.00
2022-08-31T09:54:17.998Z,21.02
2022-08-31T09:56:55.432Z,21.00
2022-08-31T09:59:41.888Z,21.05
2022-08-31T10:02:28.646Z,21.08
2022-08-31T10:05:03.830Z,21.16
2022-08-31T10:07:43.150Z,21.21
2022-08-31T10:10:24.269Z,21.27
2022-08-31T10:13:04.361Z,21.30
2022-08-31T10:15:41.139Z,21.27
2022-08-31T10:18:16.012Z,21.26
2022-08-31T10:20:55.901Z,21.34
2022-08-31T10:23:34.716Z,21.33
2022-08-31T10:26:09.036Z,21.38
2022-08-31T10:28:44.802Z,21.25
2022-08-31T10:31:22.303Z,21.29
2022-08-31T10:34:18.151Z,21.23
2022-08-31T10:36:50.147Z,21.19
2022-08-31T10:39:29.525Z,21.22
2022-08-31T10:42:04.227Z,21.20
2022-08-31T10:44:42.137Z,21.18
2022-08-31T10:47:32.609Z,21.22
2022-08-31T10:50:04.690Z,21.20
2022-08-31T10:52:43.939Z,21.36
2022-08-31T10:55:23.475Z,21.30
2022-08-31T10:57:59.093Z,21.27
2022-08-31T11:00:42.545Z,21.29
2022-08-31T11:03:22.179Z,21.31
2022-08-31T11:06:00.307Z,21.38
2022-08-31T11:08:49.939Z,21.32
2022-08-31T11:11:27.429Z,21.34
2022-08-31T11:14:17.967Z,21.40
2022-08-31T11:17:20.431Z,21.36
2022-08-31T11:20:21.345Z,21.39
2022-08-31T11:23:42.214Z,21.37
2022-08-31T11:26:52.861Z,21.42
2022-08-31T11:29:35.471Z,21.42
2022-08-31T11:32:16.737Z,21.52
2022-08-31T11:34:51.420Z,21.54
2022-08-31T11:37:52.266Z,21.54
2022-08-31T11:41:03.028Z,21.48
2022-08-31T11:43:51.949Z,21.51
2022-08-31T11:47:05.793Z,21.47
2022-08-31T11:49:44.852Z,21.35
2022-08-31T11:52:43.301Z,21.42
2022-08-31T11:55:31.336Z,21.47
2022-08-31T11:58:25.926Z,21.48
2022-08-31T12:01:03.073Z,21.46
2022-08-31T12:03:51.369Z,21.51
2022-08-31T12:07:09.128Z,21.47
2022-08-31T12:10:03.365Z,21.58
2022-08-31T12:12:49.457Z,21.62
2022-08-31T12:15:27.691Z,21.60
2022-08-31T12:18:18.714Z,21.60
2022-08-31T12:21:16.956Z,21.73
2022-08-31T12:24:03.601Z,21.70
2022-08-31T12:26:52.818Z,21.69
2022-08-31T12:29:29.368Z,21.72
2022-08-31T12:32:24.082Z,21.68
2022-08-31T12:35:05.776Z,21.65
2022-08-31T12:37:37.246Z,21.71
2022-08-31T12:40:14.913Z,21.78
2022-08-31T12:43:01.495Z,21.78
2022-08-31T12:46:31.945Z,21.82
2022-08-31T12:49:22.925Z,21.87
2022-08-31T12:52:01.287Z,21.96
2022-08-31T12:55:23.475Z,21.98
2022-08-31T12:58:11.449Z,21.97
2022-08-31T13:00:43.416Z,21.95
2022-08-31T13:03:22.419Z,21.98
2022-08-31T13:06:08.301Z,21.98
2022-08-31T13:08:43.616Z,22.03
2022-08-31T13:11:20.836Z,22.12
2022-08-31T13:13:52.835Z,22.11
2022-08-31T13:16:21.890Z,22.13
2022-08-31T13:19:05.364Z,22.14
2022-08-31T13:21:34.578Z,22.16
2022-08-31T13:24:11.608Z,22.25
2022-08-31T13:26:39.768Z,22.25
2022-08-31T13:29:10.066Z,22.30
2022-08-31T13:31:50.058Z,22.32
2022-08-31T13:34:19.207Z,22.27
2022-08-31T13:36:53.716Z,22.30
2022-08-31T13:39:28.726Z,22.38
2022-08-31T13:42:05.899Z,22.39
2022-08-31T13:44:39.918Z,22.43
2022-08-31T13:47:23.103Z,22.34
2022-08-31T13:49:55.829Z,22.31
2022-08-31T13:52:29.180Z,22.39
2022-08-31T13:55:05.448Z,22.44
2022-08-31T13:57:35.845Z,22.44
2022-08-31T14:00:34.352Z,22.40
2022-08-31T14:03:45.611Z,22.38
2022-08-31T14:06:24.614Z,22.42
2022-08-31T14:09:00.236Z,22.48
2022-08-31T14:11:29.765Z,22.56
2022-08-31T14:14:07.442Z,22.57
2022-08-31T14:16:38.761Z,22.58
2022-08-31T14:19:10.654Z,22.63
2022-08-31T14:21:42.060Z,22.70
2022-08-31T14:24:12.193Z,22.66
2022-08-31T14:26:44.798Z,22.66
2022-08-31T14:29:15.921Z,22.71
2022-08-31T14:31:48.572Z,22.71
2022-08-31T14:34:24.846Z,22.74
2022-08-31T14:37:02.179Z,22.70
2022-08-31T14:39:32.835Z,22.68
2022-08-31T14:42:08.127Z,22.73
2022-08-31T14:44:42.048Z,22.71
2022-08-31T14:47:11.641Z,22.72
2022-08-31T14:49:41.114Z,22.73
2022-08-31T14:52:09.462Z,22.72
2022-08-31T14:54:38.179Z,22.73
2022-08-31T14:57:12.695Z,22.80
2022-08-31T15:02:16.268Z,22.83
2022-08-31T15:04:45.321Z,22.83
2022-08-31T15:07:15.619Z,22.87
2022-08-31T15:09:46.723Z,22.91
2022-08-31T15:12:16.641Z,22.98
2022-08-31T15:14:47.120Z,23.03
2022-08-31T15:17:19.190Z,23.12
2022-08-31T15:19:50.577Z,23.14
2022-08-31T15:22:19.414Z,23.11
2022-08-31T15:24:48.003Z,23.16
2022-08-31T15:27:18.253Z,23.21
2022-08-31T15:29:50.883Z,23.27
2022-08-31T15:32:19.196Z,23.28
2022-08-31T15:34:56.828Z,23.29
2022-08-31T15:37:27.287Z,23.33
2022-08-31T15:40:00.692Z,23.37
2022-08-31T15:42:31.364Z,23.38
2022-08-31T15:45:00.336Z,23.40
2022-08-31T15:47:50.021Z,23.43
2022-08-31T15:50:23.189Z,23.41
2022-08-31T15:52:56.167Z,23.44
2022-08-31T15:55:26.525Z,23.41
2022-08-31T15:57:59.305Z,23.46
2022-08-31T16:00:32.716Z,23.48
2022-08-31T16:03:02.084Z,23.43
2022-08-31T16:05:34.992Z,23.45
2022-08-31T16:08:04.165Z,23.45
2022-08-31T16:10:32.429Z,23.42
2022-08-31T16:13:03.137Z,23.46
2022-08-31T16:15:33.064Z,23.48
2022-08-31T16:18:05.767Z,23.46
2022-08-31T16:20:34.935Z,23.47
2022-08-31T16:23:07.041Z,23.54
2022-08-31T16:25:48.240Z,23.50
2022-08-31T16:28:20.483Z,23.55
2022-08-31T16:30:51.394Z,23.51
2022-08-31T16:33:20.552Z,23.52
2022-08-31T16:35:48.853Z,23.51
2022-08-31T16:38:17.043Z,23.48
2022-08-31T16:40:45.599Z,23.44
2022-08-31T16:43:20.206Z,23.42
2022-08-31T16:45:48.348Z,23.40
2022-08-31T16:48:34.185Z,23.39
2022-08-31T16:51:02.660Z,23.37
2022-08-31T16:53:32.470Z,23.37
2022-08-31T16:56:03.077Z,23.35
2022-08-31T16:58:51.239Z,23.29
2022-08-31T17:01:23.929Z,23.24
2022-08-31T17:03:55.873Z,23.27
2022-08-31T17:06:24.866Z,23.27
2022-08-31T17:08:57.357Z,23.24
2022-08-31T17:11:31.394Z,23.24
2022-08-31T17:14:04.226Z,23.24
2022-08-31T17:16:36.238Z,23.23
2022-08-31T17:19:08.363Z,23.12
2022-08-31T17:21:49.452Z,23.03
2022-08-31T17:24:21.752Z,23.00
2022-08-31T17:26:51.916Z,22.96
2022-08-31T17:29:23.533Z,22.94
2022-08-31T17:31:53.385Z,22.92
2022-08-31T17:34:26.892Z,22.86
2022-08-31T17:36:58.499Z,22.76
2022-08-31T17:39:28.062Z,22.77
2022-08-31T17:41:57.937Z,22.76
2022-08-31T17:44:30.968Z,22.67
2022-08-31T17:47:01.612Z,22.67
2022-08-31T17:49:32.024Z,22.68
2022-08-31T17:52:08.444Z,22.56
2022-08-31T17:54:40.243Z,22.51
2022-08-31T17:57:11.582Z,22.48
2022-08-31T17:59:43.858Z,22.46
2022-08-31T18:02:16.063Z,22.42
2022-08-31T18:04:45.122Z,22.37
2022-08-31T18:07:13.627Z,22.29
2022-08-31T18:09:45.466Z,22.21
2022-08-31T18:12:15.279Z,22.12
2022-08-31T18:14:45.280Z,22.11
2022-08-31T18:17:17.156Z,22.07
2022-08-31T18:19:46.011Z,22.03
2022-08-31T18:22:14.861Z,22.03
2022-08-31T18:24:43.838Z,21.97
2022-08-31T18:27:15.084Z,21.97
2022-08-31T18:29:46.053Z,21.95
2022-08-31T18:32:15.059Z,21.83
2022-08-31T18:34:46.212Z,21.80
2022-08-31T18:37:16.416Z,21.71
2022-08-31T18:39:59.592Z,21.68
2022-08-31T18:42:47.280Z,21.67
2022-08-31T18:45:18.279Z,21.60
2022-08-31T18:48:07.046Z,21.60
2022-08-31T18:50:37.520Z,21.57
2022-08-31T18:53:11.184Z,21.56
2022-08-31T18:55:44.044Z,21.51
2022-08-31T18:58:12.702Z,21.50
2022-08-31T19:00:42.883Z,21.55
2022-08-31T19:03:11.206Z,21.54
2022-08-31T19:05:41.174Z,21.50
2022-08-31T19:08:09.335Z,21.44
2022-08-31T19:10:37.535Z,21.39
2022-08-31T19:13:07.668Z,21.35
2022-08-31T19:15:41.300Z,21.27
2022-08-31T19:18:09.594Z,21.22
2022-08-31T19:20:38.485Z,21.23
2022-08-31T19:23:08.105Z,21.23
2022-08-31T19:25:43.342Z,21.16
2022-08-31T19:28:12.321Z,21.15
2022-08-31T19:30:47.586Z,21.07
2022-08-31T19:33:16.222Z,21.01
2022-08-31T19:35:45.073Z,20.97
2022-08-31T19:38:14.188Z,20.91
2022-08-31T19:40:42.487Z,20.95
2022-08-31T19:46:16.225Z,20.92
2022-08-31T19:48:46.089Z,20.88
2022-08-31T19:51:16.558Z,20.85
2022-08-31T19:53:46.044Z,20.85
2022-08-31T19:56:17.552Z,20.83
2022-08-31T19:58:48.324Z,20.83
2022-08-31T20:01:19.638Z,20.81
2022-08-31T20:03:49.136Z,20.80
2022-08-31T20:06:20.724Z,20.79
2022-08-31T20:08:50.899Z,20.77
2022-08-31T20:11:24.726Z,20.73
2022-08-31T20:13:53.198Z,20.73
2022-08-31T20:16:24.492Z,20.79
2022-08-31T20:19:05.917Z,20.78
2022-08-31T20:21:35.628Z,20.83
2022-08-31T20:24:07.608Z,20.82
2022-08-31T20:26:47.436Z,20.82
2022-08-31T20:29:21.414Z,20.79
2022-08-31T20:31:55.219Z,20.79
2022-08-31T20:34:28.715Z,20.71
2022-08-31T20:37:01.310Z,20.68
2022-08-31T20:39:32.388Z,20.64
2022-08-31T20:42:03.050Z,20.66
2022-08-31T20:44:34.743Z,20.64
2022-08-31T20:47:25.970Z,20.60
2022-08-31T20:49:56.185Z,20.54
2022-08-31T20:52:27.341Z,20.50
2022-08-31T20:55:01.792Z,20.50
2022-08-31T20:57:32.768Z,20.47
2022-08-31T21:00:02.805Z,20.41
2022-08-31T21:02:34.325Z,20.36
2022-08-31T21:07:52.294Z,20.33
2022-08-31T21:10:36.090Z,20.33
2022-08-31T21:13:09.034Z,20.28
2022-08-31T21:15:42.741Z,20.22
2022-08-31T21:18:15.993Z,20.25
2022-08-31T21:20:44.873Z,20.21
2022-08-31T21:23:13.301Z,20.17
2022-08-31T21:25:43.914Z,20.14
2022-08-31T21:28:15.572Z,20.12
2022-08-31T21:30:43.856Z,20.13
2022-08-31T21:33:13.305Z,20.11
2022-08-31T21:35:41.355Z,20.13
2022-08-31T21:38:12.908Z,20.10
2022-08-31T21:40:49.183Z,20.05
2022-08-31T21:43:17.482Z,20.03
2022-08-31T21:45:45.531Z,20.00
2022-08-31T21:48:14.955Z,20.01
2022-08-31T21:50:43.141Z,19.98
2022-08-31T21:53:11.857Z,19.95
2022-08-31T21:55:39.989Z,19.90
2022-08-31T21:58:08.028Z,19.90
2022-08-31T22:00:41.737Z,19.87
2022-08-31T22:03:10.524Z,19.87
2022-08-31T22:05:43.393Z,19.88
2022-08-31T22:08:11.585Z,19.83
2022-08-31T22:10:42.301Z,19.74
2022-08-31T22:13:13.045Z,19.70
2022-08-31T22:15:42.737Z,19.68
2022-08-31T22:18:58.189Z,19.72
2022-08-31T22:21:01.736Z,19.63
2022-08-31T22:23:29.953Z,19.52
2022-08-31T22:25:57.994Z,19.45
2022-08-31T22:28:27.511Z,19.42
2022-08-31T22:30:56.023Z,19.42
2022-08-31T22:33:24.155Z,19.38
2022-08-31T22:35:52.229Z,19.34
2022-08-31T22:38:21.733Z,19.31
2022-08-31T22:40:50.762Z,19.32
2022-08-31T22:43:18.942Z,19.39
2022-08-31T22:45:48.807Z,19.50
2022-08-31T22:48:17.570Z,19.53
2022-08-31T22:50:45.770Z,19.59
2022-08-31T22:53:14.747Z,19.60
2022-08-31T22:55:44.348Z,19.61
2022-08-31T22:58:13.681Z,19.63
2022-08-31T23:00:45.350Z,19.64
2022-08-31T23:03:14.778Z,19.61
2022-08-31T23:05:44.028Z,19.59
2022-08-31T23:08:13.761Z,19.55
2022-08-31T23:10:42.976Z,19.59
2022-08-31T23:13:12.409Z,19.59
2022-08-31T23:15:41.085Z,19.54
2022-08-31T23:18:10.407Z,19.51
2022-08-31T23:20:41.749Z,19.49
2022-08-31T23:23:10.450Z,19.46
2022-08-31T23:25:40.896Z,19.37
2022-08-31T23:28:09.653Z,19.36
2022-08-31T23:30:44.621Z,19.37
2022-08-31T23:33:12.774Z,19.32
2022-08-31T23:35:41.044Z,19.27
2022-08-31T23:38:09.079Z,19.24
2022-08-31T23:40:37.259Z,19.25
2022-08-31T23:43:07.923Z,19.18
2022-08-31T23:45:40.993Z,19.11
2022-08-31T23:48:09.352Z,19.18
2022-08-31T23:50:37.559Z,19.16
2022-08-31T23:53:17.297Z,19.07
2022-08-31T23:55:46.155Z,18.99
2022-08-31T23:58:16.089Z,19.06
